Mount Clare, Nebraska
Current Conditions -  °F | °C
As of 1:53 PM on Thursday 18 Dec 2014 (Local Time) from KHSI Reporting Station
Overcast Overcast  
Wind Chill: 24°   Ceiling: 1000
Heat Index: 29°   Visibility: 10mi
Dew Point: 24°   Wind: 5mph
Humidity: 82%   Direction: 230°SW
Pressure: 30.13"   Gusts: NA
Location:  40.2635°N, 98.2176°W
Report Text: KHSI 181953Z AUTO 23004KT 10SM OVC010 M02/M04 A3013 RMK AO2 SLP226 T10171044
Loading
Personal Weather Stations






























Interactive Weather Map New forecast layout! Learn more

10-Day Weather Forecast

Advertisements
Track Severe Weather on mobile